sensor_id;sensor_type;location;lat;lon;timestamp;temperature;humidity
10057;DHT22;5068;51.286;7.518;2023-10-09T00:00:09;10.90;67.20
10057;DHT22;5068;51.286;7.518;2023-10-09T00:01:57;10.90;67.30
10057;DHT22;5068;51.286;7.518;2023-10-09T00:03:30;10.80;67.10
10057;DHT22;5068;51.286;7.518;2023-10-09T00:05:04;10.80;67.20
10057;DHT22;5068;51.286;7.518;2023-10-09T00:06:43;10.80;67.30
10057;DHT22;5068;51.286;7.518;2023-10-09T00:08:17;10.80;67.30
10057;DHT22;5068;51.286;7.518;2023-10-09T00:09:53;10.80;67.30
10057;DHT22;5068;51.286;7.518;2023-10-09T00:11:27;10.70;67.30
10057;DHT22;5068;51.286;7.518;2023-10-09T00:13:01;10.70;67.50
10057;DHT22;5068;51.286;7.518;2023-10-09T00:14:36;10.70;68.30
10057;DHT22;5068;51.286;7.518;2023-10-09T00:16:10;10.70;67.70
10057;DHT22;5068;51.286;7.518;2023-10-09T00:17:47;10.70;67.70
10057;DHT22;5068;51.286;7.518;2023-10-09T00:19:20;10.60;67.60
10057;DHT22;5068;51.286;7.518;2023-10-09T00:21:02;10.60;67.60
10057;DHT22;5068;51.286;7.518;2023-10-09T00:22:44;10.60;67.70
10057;DHT22;5068;51.286;7.518;2023-10-09T00:24:20;10.60;67.60
10057;DHT22;5068;51.286;7.518;2023-10-09T00:25:55;10.60;67.60
10057;DHT22;5068;51.286;7.518;2023-10-09T00:27:43;10.50;67.50
10057;DHT22;5068;51.286;7.518;2023-10-09T00:29:18;10.50;67.40
10057;DHT22;5068;51.286;7.518;2023-10-09T00:30:53;10.50;67.50
10057;DHT22;5068;51.286;7.518;2023-10-09T00:32:27;10.50;67.50
10057;DHT22;5068;51.286;7.518;2023-10-09T00:34:04;10.50;67.50
10057;DHT22;5068;51.286;7.518;2023-10-09T00:35:39;10.50;67.50
10057;DHT22;5068;51.286;7.518;2023-10-09T00:37:25;10.50;67.50
10057;DHT22;5068;51.286;7.518;2023-10-09T00:39:05;10.40;67.50
10057;DHT22;5068;51.286;7.518;2023-10-09T00:40:52;10.40;67.10
10057;DHT22;5068;51.286;7.518;2023-10-09T00:42:33;10.40;67.10
10057;DHT22;5068;51.286;7.518;2023-10-09T00:44:09;10.30;66.90
10057;DHT22;5068;51.286;7.518;2023-10-09T00:45:43;10.40;67.10
10057;DHT22;5068;51.286;7.518;2023-10-09T00:47:17;10.30;67.10
10057;DHT22;5068;51.286;7.518;2023-10-09T00:48:56;10.30;67.20
10057;DHT22;5068;51.286;7.518;2023-10-09T00:50:33;10.30;67.30
10057;DHT22;5068;51.286;7.518;2023-10-09T00:52:08;10.30;67.40
10057;DHT22;5068;51.286;7.518;2023-10-09T00:53:51;10.30;67.40
10057;DHT22;5068;51.286;7.518;2023-10-09T00:55:26;10.30;67.40
10057;DHT22;5068;51.286;7.518;2023-10-09T00:57:11;10.20;67.30
10057;DHT22;5068;51.286;7.518;2023-10-09T00:58:46;10.20;67.40
10057;DHT22;5068;51.286;7.518;2023-10-09T01:00:27;10.20;67.50
10057;DHT22;5068;51.286;7.518;2023-10-09T01:02:17;10.20;67.60
10057;DHT22;5068;51.286;7.518;2023-10-09T01:03:51;10.20;67.70
10057;DHT22;5068;51.286;7.518;2023-10-09T01:05:25;10.20;67.80
10057;DHT22;5068;51.286;7.518;2023-10-09T01:06:58;10.10;67.80
10057;DHT22;5068;51.286;7.518;2023-10-09T01:08:41;10.10;67.90
10057;DHT22;5068;51.286;7.518;2023-10-09T01:10:19;10.10;68.10
10057;DHT22;5068;51.286;7.518;2023-10-09T01:11:53;10.10;68.20
10057;DHT22;5068;51.286;7.518;2023-10-09T01:13:38;10.10;68.20
10057;DHT22;5068;51.286;7.518;2023-10-09T01:15:24;10.10;68.40
10057;DHT22;5068;51.286;7.518;2023-10-09T01:17:09;10.10;68.30
10057;DHT22;5068;51.286;7.518;2023-10-09T01:18:43;10.10;68.20
10057;DHT22;5068;51.286;7.518;2023-10-09T01:20:22;10.10;68.50
10057;DHT22;5068;51.286;7.518;2023-10-09T01:22:02;10.10;68.80
10057;DHT22;5068;51.286;7.518;2023-10-09T01:23:37;10.10;68.90
10057;DHT22;5068;51.286;7.518;2023-10-09T01:25:14;10.10;69.10
10057;DHT22;5068;51.286;7.518;2023-10-09T01:26:48;10.10;69.00
10057;DHT22;5068;51.286;7.518;2023-10-09T01:28:21;10.10;69.10
10057;DHT22;5068;51.286;7.518;2023-10-09T01:29:56;10.10;69.10
10057;DHT22;5068;51.286;7.518;2023-10-09T01:31:31;10.10;69.20
10057;DHT22;5068;51.286;7.518;2023-10-09T01:33:09;10.10;69.20
10057;DHT22;5068;51.286;7.518;2023-10-09T01:34:54;10.10;69.30
10057;DHT22;5068;51.286;7.518;2023-10-09T01:36:30;10.20;69.50
10057;DHT22;5068;51.286;7.518;2023-10-09T01:38:03;10.20;69.50
10057;DHT22;5068;51.286;7.518;2023-10-09T01:39:43;10.20;69.50
10057;DHT22;5068;51.286;7.518;2023-10-09T01:41:17;10.20;69.70
10057;DHT22;5068;51.286;7.518;2023-10-09T01:42:51;10.20;69.60
10057;DHT22;5068;51.286;7.518;2023-10-09T01:44:26;10.20;69.50
10057;DHT22;5068;51.286;7.518;2023-10-09T01:46:02;10.20;69.60
10057;DHT22;5068;51.286;7.518;2023-10-09T01:47:37;10.20;69.40
10057;DHT22;5068;51.286;7.518;2023-10-09T01:49:10;10.20;69.40
10057;DHT22;5068;51.286;7.518;2023-10-09T01:50:49;10.20;69.30
10057;DHT22;5068;51.286;7.518;2023-10-09T01:52:21;10.30;69.30
10057;DHT22;5068;51.286;7.518;2023-10-09T01:53:56;10.30;69.30
10057;DHT22;5068;51.286;7.518;2023-10-09T01:55:32;10.30;69.70
10057;DHT22;5068;51.286;7.518;2023-10-09T01:57:08;10.20;69.30
10057;DHT22;5068;51.286;7.518;2023-10-09T01:58:44;10.20;69.30
10057;DHT22;5068;51.286;7.518;2023-10-09T02:00:19;10.30;70.30
10057;DHT22;5068;51.286;7.518;2023-10-09T02:01:55;10.20;69.40
10057;DHT22;5068;51.286;7.518;2023-10-09T02:03:30;10.30;70.30
10057;DHT22;5068;51.286;7.518;2023-10-09T02:05:04;10.20;69.40
10057;DHT22;5068;51.286;7.518;2023-10-09T02:06:41;10.20;69.40
10057;DHT22;5068;51.286;7.518;2023-10-09T02:08:13;10.20;69.30
10057;DHT22;5068;51.286;7.518;2023-10-09T02:09:48;10.20;69.20
10057;DHT22;5068;51.286;7.518;2023-10-09T02:11:21;10.20;69.20
10057;DHT22;5068;51.286;7.518;2023-10-09T02:13:09;10.20;69.10
10057;DHT22;5068;51.286;7.518;2023-10-09T02:14:45;10.20;69.10
10057;DHT22;5068;51.286;7.518;2023-10-09T02:16:17;10.20;69.10
10057;DHT22;5068;51.286;7.518;2023-10-09T02:18:00;10.20;69.10
10057;DHT22;5068;51.286;7.518;2023-10-09T02:19:33;10.20;69.20
10057;DHT22;5068;51.286;7.518;2023-10-09T02:21:07;10.20;69.10
10057;DHT22;5068;51.286;7.518;2023-10-09T02:22:46;10.20;69.10
10057;DHT22;5068;51.286;7.518;2023-10-09T02:24:20;10.20;69.10
10057;DHT22;5068;51.286;7.518;2023-10-09T02:26:14;10.20;69.10
10057;DHT22;5068;51.286;7.518;2023-10-09T02:27:53;10.10;69.10
10057;DHT22;5068;51.286;7.518;2023-10-09T02:29:25;10.20;69.30
10057;DHT22;5068;51.286;7.518;2023-10-09T02:30:59;10.20;69.30
10057;DHT22;5068;51.286;7.518;2023-10-09T02:32:32;10.20;69.50
10057;DHT22;5068;51.286;7.518;2023-10-09T02:34:06;10.20;69.30
10057;DHT22;5068;51.286;7.518;2023-10-09T02:35:40;10.20;69.30
10057;DHT22;5068;51.286;7.518;2023-10-09T02:37:14;10.20;69.20
10057;DHT22;5068;51.286;7.518;2023-10-09T02:38:54;10.20;69.10
10057;DHT22;5068;51.286;7.518;2023-10-09T02:40:28;10.20;69.10
10057;DHT22;5068;51.286;7.518;2023-10-09T02:42:11;10.20;69.10
10057;DHT22;5068;51.286;7.518;2023-10-09T02:43:56;10.10;68.80
10057;DHT22;5068;51.286;7.518;2023-10-09T02:45:42;10.10;68.80
10057;DHT22;5068;51.286;7.518;2023-10-09T02:47:22;10.10;68.80
10057;DHT22;5068;51.286;7.518;2023-10-09T02:49:02;10.10;68.80
10057;DHT22;5068;51.286;7.518;2023-10-09T02:50:38;10.10;68.80
10057;DHT22;5068;51.286;7.518;2023-10-09T02:52:11;10.10;68.90
10057;DHT22;5068;51.286;7.518;2023-10-09T02:53:49;10.20;69.00
10057;DHT22;5068;51.286;7.518;2023-10-09T02:55:21;10.10;69.00
10057;DHT22;5068;51.286;7.518;2023-10-09T02:56:57;10.10;69.00
10057;DHT22;5068;51.286;7.518;2023-10-09T02:58:38;10.10;69.00
10057;DHT22;5068;51.286;7.518;2023-10-09T03:00:14;10.10;69.20
10057;DHT22;5068;51.286;7.518;2023-10-09T03:01:51;10.10;69.30
10057;DHT22;5068;51.286;7.518;2023-10-09T03:03:25;10.10;69.40
10057;DHT22;5068;51.286;7.518;2023-10-09T03:04:59;10.10;69.40
10057;DHT22;5068;51.286;7.518;2023-10-09T03:06:35;10.10;69.30
10057;DHT22;5068;51.286;7.518;2023-10-09T03:08:15;10.10;69.30
10057;DHT22;5068;51.286;7.518;2023-10-09T03:09:51;10.10;69.30
10057;DHT22;5068;51.286;7.518;2023-10-09T03:11:24;10.10;69.40
10057;DHT22;5068;51.286;7.518;2023-10-09T03:12:59;10.10;69.50
10057;DHT22;5068;51.286;7.518;2023-10-09T03:14:36;10.10;69.30
10057;DHT22;5068;51.286;7.518;2023-10-09T03:16:11;10.10;69.50
10057;DHT22;5068;51.286;7.518;2023-10-09T03:17:47;10.10;69.50
10057;DHT22;5068;51.286;7.518;2023-10-09T03:19:20;10.10;69.60
10057;DHT22;5068;51.286;7.518;2023-10-09T03:20:53;10.10;69.60
10057;DHT22;5068;51.286;7.518;2023-10-09T03:22:25;10.10;69.70
10057;DHT22;5068;51.286;7.518;2023-10-09T03:23:58;10.10;70.00
10057;DHT22;5068;51.286;7.518;2023-10-09T03:25:36;10.10;70.00
10057;DHT22;5068;51.286;7.518;2023-10-09T03:27:09;10.10;70.10
10057;DHT22;5068;51.286;7.518;2023-10-09T03:28:43;10.10;70.30
10057;DHT22;5068;51.286;7.518;2023-10-09T03:30:17;10.10;70.40
10057;DHT22;5068;51.286;7.518;2023-10-09T03:31:56;10.10;70.50
10057;DHT22;5068;51.286;7.518;2023-10-09T03:33:29;10.10;70.50
10057;DHT22;5068;51.286;7.518;2023-10-09T03:35:05;10.10;70.50
10057;DHT22;5068;51.286;7.518;2023-10-09T03:36:52;10.10;70.50
10057;DHT22;5068;51.286;7.518;2023-10-09T03:38:36;10.10;70.60
10057;DHT22;5068;51.286;7.518;2023-10-09T03:40:09;10.10;70.50
10057;DHT22;5068;51.286;7.518;2023-10-09T03:41:49;10.20;70.60
10057;DHT22;5068;51.286;7.518;2023-10-09T03:43:22;10.20;70.70
10057;DHT22;5068;51.286;7.518;2023-10-09T03:44:56;10.20;70.60
10057;DHT22;5068;51.286;7.518;2023-10-09T03:46:29;10.20;70.60
10057;DHT22;5068;51.286;7.518;2023-10-09T03:48:06;10.20;70.70
10057;DHT22;5068;51.286;7.518;2023-10-09T03:49:43;10.20;70.70
10057;DHT22;5068;51.286;7.518;2023-10-09T03:51:17;10.20;70.80
10057;DHT22;5068;51.286;7.518;2023-10-09T03:52:53;10.20;70.90
10057;DHT22;5068;51.286;7.518;2023-10-09T03:54:27;10.20;71.10
10057;DHT22;5068;51.286;7.518;2023-10-09T03:56:02;10.20;71.10
10057;DHT22;5068;51.286;7.518;2023-10-09T03:57:37;10.20;71.20
10057;DHT22;5068;51.286;7.518;2023-10-09T03:59:10;10.20;71.10
10057;DHT22;5068;51.286;7.518;2023-10-09T04:00:48;10.20;71.10
10057;DHT22;5068;51.286;7.518;2023-10-09T04:02:21;10.30;71.20
10057;DHT22;5068;51.286;7.518;2023-10-09T04:03:58;10.30;71.20
10057;DHT22;5068;51.286;7.518;2023-10-09T04:05:32;10.30;71.30
10057;DHT22;5068;51.286;7.518;2023-10-09T04:07:05;10.30;71.30
10057;DHT22;5068;51.286;7.518;2023-10-09T04:08:39;10.30;71.30
10057;DHT22;5068;51.286;7.518;2023-10-09T04:10:19;10.30;71.20
10057;DHT22;5068;51.286;7.518;2023-10-09T04:12:16;10.30;71.30
10057;DHT22;5068;51.286;7.518;2023-10-09T04:13:57;10.30;72.10
10057;DHT22;5068;51.286;7.518;2023-10-09T04:15:36;10.30;71.20
10057;DHT22;5068;51.286;7.518;2023-10-09T04:17:08;10.30;71.30
10057;DHT22;5068;51.286;7.518;2023-10-09T04:19:03;10.30;71.20
10057;DHT22;5068;51.286;7.518;2023-10-09T04:20:43;10.40;71.30
10057;DHT22;5068;51.286;7.518;2023-10-09T04:22:40;10.40;71.40
10057;DHT22;5068;51.286;7.518;2023-10-09T04:24:22;10.30;71.40
10057;DHT22;5068;51.286;7.518;2023-10-09T04:25:55;10.40;71.60
10057;DHT22;5068;51.286;7.518;2023-10-09T04:27:31;10.40;71.80
10057;DHT22;5068;51.286;7.518;2023-10-09T04:29:08;10.40;71.90
10057;DHT22;5068;51.286;7.518;2023-10-09T04:30:42;10.40;72.00
10057;DHT22;5068;51.286;7.518;2023-10-09T04:32:16;10.50;72.10
10057;DHT22;5068;51.286;7.518;2023-10-09T04:33:50;10.50;72.20
10057;DHT22;5068;51.286;7.518;2023-10-09T04:35:39;10.50;72.40
10057;DHT22;5068;51.286;7.518;2023-10-09T04:37:17;10.50;72.50
10057;DHT22;5068;51.286;7.518;2023-10-09T04:38:55;10.50;72.50
10057;DHT22;5068;51.286;7.518;2023-10-09T04:40:48;10.50;73.20
10057;DHT22;5068;51.286;7.518;2023-10-09T04:42:23;10.60;72.50
10057;DHT22;5068;51.286;7.518;2023-10-09T04:44:09;10.60;72.30
10057;DHT22;5068;51.286;7.518;2023-10-09T04:45:52;10.60;72.30
10057;DHT22;5068;51.286;7.518;2023-10-09T04:47:41;10.60;72.30
10057;DHT22;5068;51.286;7.518;2023-10-09T04:49:29;10.60;72.20
10057;DHT22;5068;51.286;7.518;2023-10-09T04:51:07;10.60;72.20
10057;DHT22;5068;51.286;7.518;2023-10-09T04:53:00;10.60;72.30
10057;DHT22;5068;51.286;7.518;2023-10-09T04:54:53;10.70;72.40
10057;DHT22;5068;51.286;7.518;2023-10-09T04:56:44;10.70;72.40
10057;DHT22;5068;51.286;7.518;2023-10-09T04:58:26;10.70;72.50
10057;DHT22;5068;51.286;7.518;2023-10-09T04:59:59;10.70;72.50
10057;DHT22;5068;51.286;7.518;2023-10-09T05:01:35;10.70;72.40
10057;DHT22;5068;51.286;7.518;2023-10-09T05:03:09;10.70;72.40
10057;DHT22;5068;51.286;7.518;2023-10-09T05:04:44;10.70;73.20
10057;DHT22;5068;51.286;7.518;2023-10-09T05:06:21;10.70;73.30
10057;DHT22;5068;51.286;7.518;2023-10-09T05:07:53;10.80;72.70
10057;DHT22;5068;51.286;7.518;2023-10-09T05:09:27;10.70;72.60
10057;DHT22;5068;51.286;7.518;2023-10-09T05:11:22;10.80;72.80
10057;DHT22;5068;51.286;7.518;2023-10-09T05:13:25;10.80;72.90
10057;DHT22;5068;51.286;7.518;2023-10-09T05:15:15;10.80;72.90
10057;DHT22;5068;51.286;7.518;2023-10-09T05:16:48;10.80;72.80
10057;DHT22;5068;51.286;7.518;2023-10-09T05:18:26;10.80;72.80
10057;DHT22;5068;51.286;7.518;2023-10-09T05:19:59;10.80;72.70
10057;DHT22;5068;51.286;7.518;2023-10-09T05:21:48;10.80;72.70
10057;DHT22;5068;51.286;7.518;2023-10-09T05:23:20;10.90;72.90
10057;DHT22;5068;51.286;7.518;2023-10-09T05:24:58;10.90;72.90
10057;DHT22;5068;51.286;7.518;2023-10-09T05:26:30;10.90;72.90
10057;DHT22;5068;51.286;7.518;2023-10-09T05:28:22;10.90;73.00
10057;DHT22;5068;51.286;7.518;2023-10-09T05:30:03;10.90;72.90
10057;DHT22;5068;51.286;7.518;2023-10-09T05:31:56;10.90;73.30
10057;DHT22;5068;51.286;7.518;2023-10-09T05:33:29;10.90;72.90
10057;DHT22;5068;51.286;7.518;2023-10-09T05:35:08;10.90;72.80
10057;DHT22;5068;51.286;7.518;2023-10-09T05:36:48;10.90;72.70
10057;DHT22;5068;51.286;7.518;2023-10-09T05:38:21;11.00;72.90
10057;DHT22;5068;51.286;7.518;2023-10-09T05:39:56;11.00;72.80
10057;DHT22;5068;51.286;7.518;2023-10-09T05:41:50;11.00;72.80
10057;DHT22;5068;51.286;7.518;2023-10-09T05:43:32;11.00;72.90
10057;DHT22;5068;51.286;7.518;2023-10-09T05:45:23;11.00;72.90
10057;DHT22;5068;51.286;7.518;2023-10-09T05:47:14;11.00;73.80
10057;DHT22;5068;51.286;7.518;2023-10-09T05:49:07;11.00;73.00
10057;DHT22;5068;51.286;7.518;2023-10-09T05:50:51;11.00;73.00
10057;DHT22;5068;51.286;7.518;2023-10-09T05:52:45;11.00;73.00
10057;DHT22;5068;51.286;7.518;2023-10-09T05:54:38;11.10;73.10
10057;DHT22;5068;51.286;7.518;2023-10-09T05:56:41;11.10;73.10
10057;DHT22;5068;51.286;7.518;2023-10-09T05:58:40;11.10;73.10
10057;DHT22;5068;51.286;7.518;2023-10-09T06:00:30;11.10;73.10
10057;DHT22;5068;51.286;7.518;2023-10-09T06:02:21;11.10;73.20
10057;DHT22;5068;51.286;7.518;2023-10-09T06:04:27;11.10;74.00
10057;DHT22;5068;51.286;7.518;2023-10-09T06:06:21;11.10;73.20
10057;DHT22;5068;51.286;7.518;2023-10-09T06:08:17;11.10;73.10
10057;DHT22;5068;51.286;7.518;2023-10-09T06:09:56;11.20;73.30
10057;DHT22;5068;51.286;7.518;2023-10-09T06:11:29;11.10;73.20
10057;DHT22;5068;51.286;7.518;2023-10-09T06:13:10;11.20;73.20
10057;DHT22;5068;51.286;7.518;2023-10-09T06:15:09;11.20;73.70
10057;DHT22;5068;51.286;7.518;2023-10-09T06:17:03;11.20;73.30
10057;DHT22;5068;51.286;7.518;2023-10-09T06:18:54;11.20;73.30
10057;DHT22;5068;51.286;7.518;2023-10-09T06:20:40;11.20;73.30
10057;DHT22;5068;51.286;7.518;2023-10-09T06:22:35;11.20;73.20
10057;DHT22;5068;51.286;7.518;2023-10-09T06:24:27;11.30;73.40
10057;DHT22;5068;51.286;7.518;2023-10-09T06:26:05;11.30;73.40
10057;DHT22;5068;51.286;7.518;2023-10-09T06:27:55;11.30;73.40
10057;DHT22;5068;51.286;7.518;2023-10-09T06:29:31;11.30;73.50
10057;DHT22;5068;51.286;7.518;2023-10-09T06:31:07;11.30;73.60
10057;DHT22;5068;51.286;7.518;2023-10-09T06:32:54;11.30;73.70
10057;DHT22;5068;51.286;7.518;2023-10-09T06:34:36;11.40;73.90
10057;DHT22;5068;51.286;7.518;2023-10-09T06:36:16;11.40;73.90
10057;DHT22;5068;51.286;7.518;2023-10-09T06:37:50;11.40;74.00
10057;DHT22;5068;51.286;7.518;2023-10-09T06:39:43;11.40;74.90
10057;DHT22;5068;51.286;7.518;2023-10-09T06:41:39;11.50;74.20
10057;DHT22;5068;51.286;7.518;2023-10-09T06:43:17;11.50;75.00
10057;DHT22;5068;51.286;7.518;2023-10-09T06:44:50;11.50;74.30
10057;DHT22;5068;51.286;7.518;2023-10-09T06:46:27;11.50;74.30
10057;DHT22;5068;51.286;7.518;2023-10-09T06:48:17;11.50;74.40
10057;DHT22;5068;51.286;7.518;2023-10-09T06:50:09;11.60;74.60
10057;DHT22;5068;51.286;7.518;2023-10-09T06:51:57;11.60;74.70
10057;DHT22;5068;51.286;7.518;2023-10-09T06:53:45;11.60;74.60
10057;DHT22;5068;51.286;7.518;2023-10-09T06:55:40;11.60;74.60
10057;DHT22;5068;51.286;7.518;2023-10-09T06:57:20;11.70;74.80
10057;DHT22;5068;51.286;7.518;2023-10-09T06:59:11;11.70;74.60
10057;DHT22;5068;51.286;7.518;2023-10-09T07:00:49;11.80;74.80
10057;DHT22;5068;51.286;7.518;2023-10-09T07:02:46;11.70;74.80
10057;DHT22;5068;51.286;7.518;2023-10-09T07:04:18;11.80;74.80
10057;DHT22;5068;51.286;7.518;2023-10-09T07:06:12;11.80;74.80
10057;DHT22;5068;51.286;7.518;2023-10-09T07:07:57;11.80;74.90
10057;DHT22;5068;51.286;7.518;2023-10-09T07:09:52;11.90;75.00
10057;DHT22;5068;51.286;7.518;2023-10-09T07:11:46;11.90;75.00
10057;DHT22;5068;51.286;7.518;2023-10-09T07:13:29;11.90;75.10
10057;DHT22;5068;51.286;7.518;2023-10-09T07:15:09;12.00;75.20
10057;DHT22;5068;51.286;7.518;2023-10-09T07:17:09;12.00;75.20
10057;DHT22;5068;51.286;7.518;2023-10-09T07:18:48;12.00;75.20
10057;DHT22;5068;51.286;7.518;2023-10-09T07:20:26;12.10;75.30
10057;DHT22;5068;51.286;7.518;2023-10-09T07:22:17;12.10;75.30
10057;DHT22;5068;51.286;7.518;2023-10-09T07:23:56;12.10;75.40
10057;DHT22;5068;51.286;7.518;2023-10-09T07:25:29;12.10;75.60
10057;DHT22;5068;51.286;7.518;2023-10-09T07:27:16;12.20;75.90
10057;DHT22;5068;51.286;7.518;2023-10-09T07:28:49;12.20;76.20
10057;DHT22;5068;51.286;7.518;2023-10-09T07:30:32;12.20;76.30
10057;DHT22;5068;51.286;7.518;2023-10-09T07:32:07;12.30;76.50
10057;DHT22;5068;51.286;7.518;2023-10-09T07:33:51;12.30;76.80
10057;DHT22;5068;51.286;7.518;2023-10-09T07:35:31;12.30;76.80
10057;DHT22;5068;51.286;7.518;2023-10-09T07:37:20;12.40;77.10
10057;DHT22;5068;51.286;7.518;2023-10-09T07:38:55;12.40;77.20
10057;DHT22;5068;51.286;7.518;2023-10-09T07:40:28;12.50;77.30
10057;DHT22;5068;51.286;7.518;2023-10-09T07:42:07;12.50;77.20
10057;DHT22;5068;51.286;7.518;2023-10-09T07:44:00;12.60;77.40
10057;DHT22;5068;51.286;7.518;2023-10-09T07:45:51;12.60;77.30
10057;DHT22;5068;51.286;7.518;2023-10-09T07:47:53;12.70;77.30
10057;DHT22;5068;51.286;7.518;2023-10-09T07:49:37;12.70;77.40
10057;DHT22;5068;51.286;7.518;2023-10-09T07:51:11;12.80;77.50
10057;DHT22;5068;51.286;7.518;2023-10-09T07:52:44;12.80;77.60
10057;DHT22;5068;51.286;7.518;2023-10-09T07:54:17;12.90;77.70
10057;DHT22;5068;51.286;7.518;2023-10-09T07:56:04;12.90;77.80
10057;DHT22;5068;51.286;7.518;2023-10-09T07:57:39;13.00;77.90
10057;DHT22;5068;51.286;7.518;2023-10-09T07:59:11;13.00;78.00
10057;DHT22;5068;51.286;7.518;2023-10-09T08:00:45;13.00;78.00
10057;DHT22;5068;51.286;7.518;2023-10-09T08:02:39;13.10;78.20
10057;DHT22;5068;51.286;7.518;2023-10-09T08:04:14;13.10;78.20
10057;DHT22;5068;51.286;7.518;2023-10-09T08:05:52;13.10;78.30
10057;DHT22;5068;51.286;7.518;2023-10-09T08:07:25;13.20;78.40
10057;DHT22;5068;51.286;7.518;2023-10-09T08:09:26;13.30;78.60
10057;DHT22;5068;51.286;7.518;2023-10-09T08:11:18;13.40;78.60
10057;DHT22;5068;51.286;7.518;2023-10-09T08:13:09;13.40;78.40
10057;DHT22;5068;51.286;7.518;2023-10-09T08:15:12;13.50;78.40
10057;DHT22;5068;51.286;7.518;2023-10-09T08:16:57;13.50;78.30
10057;DHT22;5068;51.286;7.518;2023-10-09T08:18:43;13.60;78.20
10057;DHT22;5068;51.286;7.518;2023-10-09T08:20:21;13.70;78.10
10057;DHT22;5068;51.286;7.518;2023-10-09T08:21:56;13.80;78.10
10057;DHT22;5068;51.286;7.518;2023-10-09T08:24:09;13.80;77.90
10057;DHT22;5068;51.286;7.518;2023-10-09T08:26:08;13.90;77.70
10057;DHT22;5068;51.286;7.518;2023-10-09T08:27:44;13.90;78.20
10057;DHT22;5068;51.286;7.518;2023-10-09T08:29:26;14.00;77.20
10057;DHT22;5068;51.286;7.518;2023-10-09T08:31:09;14.10;77.20
10057;DHT22;5068;51.286;7.518;2023-10-09T08:32:51;14.10;77.30
10057;DHT22;5068;51.286;7.518;2023-10-09T08:34:37;14.20;77.30
10057;DHT22;5068;51.286;7.518;2023-10-09T08:36:25;14.20;76.90
10057;DHT22;5068;51.286;7.518;2023-10-09T08:38:04;14.30;76.70
10057;DHT22;5068;51.286;7.518;2023-10-09T08:39:40;14.30;76.60
10057;DHT22;5068;51.286;7.518;2023-10-09T08:41:14;14.40;76.70
10057;DHT22;5068;51.286;7.518;2023-10-09T08:42:53;14.50;76.40
10057;DHT22;5068;51.286;7.518;2023-10-09T08:44:26;14.50;76.10
10057;DHT22;5068;51.286;7.518;2023-10-09T08:46:01;14.60;76.00
10057;DHT22;5068;51.286;7.518;2023-10-09T08:47:37;14.60;75.90
10057;DHT22;5068;51.286;7.518;2023-10-09T08:49:10;14.70;75.80
10057;DHT22;5068;51.286;7.518;2023-10-09T08:50:45;14.70;75.50
10057;DHT22;5068;51.286;7.518;2023-10-09T08:52:23;14.90;75.60
10057;DHT22;5068;51.286;7.518;2023-10-09T08:53:57;14.80;75.10
10057;DHT22;5068;51.286;7.518;2023-10-09T08:55:30;14.90;75.10
10057;DHT22;5068;51.286;7.518;2023-10-09T08:57:03;14.90;75.00
10057;DHT22;5068;51.286;7.518;2023-10-09T08:58:41;14.90;74.80
10057;DHT22;5068;51.286;7.518;2023-10-09T09:00:17;15.00;74.70
10057;DHT22;5068;51.286;7.518;2023-10-09T09:01:54;15.00;74.30
10057;DHT22;5068;51.286;7.518;2023-10-09T09:03:38;15.10;74.30
10057;DHT22;5068;51.286;7.518;2023-10-09T09:05:16;15.20;73.90
10057;DHT22;5068;51.286;7.518;2023-10-09T09:06:50;15.20;73.70
10057;DHT22;5068;51.286;7.518;2023-10-09T09:08:25;15.20;73.60
10057;DHT22;5068;51.286;7.518;2023-10-09T09:10:00;15.20;73.40
10057;DHT22;5068;51.286;7.518;2023-10-09T09:11:49;15.30;73.40
10057;DHT22;5068;51.286;7.518;2023-10-09T09:13:22;15.30;73.30
10057;DHT22;5068;51.286;7.518;2023-10-09T09:14:54;15.40;73.20
10057;DHT22;5068;51.286;7.518;2023-10-09T09:16:31;15.40;73.10
10057;DHT22;5068;51.286;7.518;2023-10-09T09:18:08;15.40;72.90
10057;DHT22;5068;51.286;7.518;2023-10-09T09:19:41;15.40;73.50
10057;DHT22;5068;51.286;7.518;2023-10-09T09:21:17;15.50;72.70
10057;DHT22;5068;51.286;7.518;2023-10-09T09:22:55;15.50;72.60
10057;DHT22;5068;51.286;7.518;2023-10-09T09:24:31;15.50;72.50
10057;DHT22;5068;51.286;7.518;2023-10-09T09:26:05;15.50;72.40
10057;DHT22;5068;51.286;7.518;2023-10-09T09:27:44;15.50;72.30
10057;DHT22;5068;51.286;7.518;2023-10-09T09:29:25;15.60;72.30
10057;DHT22;5068;51.286;7.518;2023-10-09T09:31:10;15.60;72.40
10057;DHT22;5068;51.286;7.518;2023-10-09T09:32:46;15.60;72.50
10057;DHT22;5068;51.286;7.518;2023-10-09T09:34:43;15.70;72.70
10057;DHT22;5068;51.286;7.518;2023-10-09T09:36:20;15.70;73.00
10057;DHT22;5068;51.286;7.518;2023-10-09T09:37:53;15.70;73.00
10057;DHT22;5068;51.286;7.518;2023-10-09T09:39:27;15.80;73.10
10057;DHT22;5068;51.286;7.518;2023-10-09T09:41:18;15.80;73.10
10057;DHT22;5068;51.286;7.518;2023-10-09T09:42:58;15.90;73.20
10057;DHT22;5068;51.286;7.518;2023-10-09T09:44:37;16.00;74.00
10057;DHT22;5068;51.286;7.518;2023-10-09T09:46:18;16.00;72.80
10057;DHT22;5068;51.286;7.518;2023-10-09T09:47:54;16.10;72.50
10057;DHT22;5068;51.286;7.518;2023-10-09T09:49:30;16.20;72.50
10057;DHT22;5068;51.286;7.518;2023-10-09T09:51:04;16.20;72.30
10057;DHT22;5068;51.286;7.518;2023-10-09T09:52:40;16.20;72.00
10057;DHT22;5068;51.286;7.518;2023-10-09T09:54:13;16.30;71.60
10057;DHT22;5068;51.286;7.518;2023-10-09T09:55:50;16.40;71.70
10057;DHT22;5068;51.286;7.518;2023-10-09T09:57:33;16.50;71.60
10057;DHT22;5068;51.286;7.518;2023-10-09T09:59:12;16.50;71.30
10057;DHT22;5068;51.286;7.518;2023-10-09T10:00:56;16.60;71.40
10057;DHT22;5068;51.286;7.518;2023-10-09T10:02:36;16.70;71.00
10057;DHT22;5068;51.286;7.518;2023-10-09T10:04:12;16.80;70.50
10057;DHT22;5068;51.286;7.518;2023-10-09T10:05:54;16.90;70.40
10057;DHT22;5068;51.286;7.518;2023-10-09T10:07:31;17.00;70.20
10057;DHT22;5068;51.286;7.518;2023-10-09T10:09:34;17.00;69.90
10057;DHT22;5068;51.286;7.518;2023-10-09T10:11:40;17.10;69.30
10057;DHT22;5068;51.286;7.518;2023-10-09T10:13:21;17.20;69.40
10057;DHT22;5068;51.286;7.518;2023-10-09T10:16:05;17.20;69.40
10057;DHT22;5068;51.286;7.518;2023-10-09T10:18:07;17.40;68.40
10057;DHT22;5068;51.286;7.518;2023-10-09T10:20:01;17.40;68.00
10057;DHT22;5068;51.286;7.518;2023-10-09T10:21:56;17.50;67.70
10057;DHT22;5068;51.286;7.518;2023-10-09T10:23:55;17.60;68.30
10057;DHT22;5068;51.286;7.518;2023-10-09T10:25:40;17.70;68.50
10057;DHT22;5068;51.286;7.518;2023-10-09T10:27:16;17.70;67.90
10057;DHT22;5068;51.286;7.518;2023-10-09T10:29:16;17.70;67.40
10057;DHT22;5068;51.286;7.518;2023-10-09T10:30:58;17.80;66.50
10057;DHT22;5068;51.286;7.518;2023-10-09T10:32:53;17.80;67.10
10057;DHT22;5068;51.286;7.518;2023-10-09T10:34:52;17.90;65.90
10057;DHT22;5068;51.286;7.518;2023-10-09T10:36:28;17.90;65.40
10057;DHT22;5068;51.286;7.518;2023-10-09T10:38:01;17.90;66.10
10057;DHT22;5068;51.286;7.518;2023-10-09T10:39:49;18.00;66.00
10057;DHT22;5068;51.286;7.518;2023-10-09T10:41:23;18.00;65.00
10057;DHT22;5068;51.286;7.518;2023-10-09T10:42:55;18.00;65.40
10057;DHT22;5068;51.286;7.518;2023-10-09T10:44:42;18.10;65.20